Airfield :







YOU CAN JOIN US ON...

 
LOGIN :

Register | Disclaimer

   EN    FR    IT 

 









Legend :    VFR   Marginal VFR   IFR   Intensive IFR   Very Intensive IFR
Visi :
Ceiling :
>= 8 km
>= 3000ft
5 to 8 km
1000 to 3000 ft
1500m to 5 km
500 to 1000 ft
800 to 1500m
200 to 500 ft
< 800m
< 200 ft
Symbols :   Thunderstorms  Fog  Heavy snow  Heavy precipitations  Wind > 20 kt







- Airport Elevation : 496 ft
- IATA code : YQX


CYQX - Gander

CURRENT METAR :
  • 150700Z 20007KT 15SM -SHRA FEW020 BKN092 OVC140 10/03 A3012 RMK SC1AC5AC2 CVCTV CLD EMBD SLP203

EXPIRED METARs :
  • 150636Z 20006KT 15SM -SHRA FEW020 BKN090 OVC130 10/04 A3013 RMK SC2AC5AC1 CVCTV CLD EMBD SLP206
  • 150600Z 22008KT 20SM FEW020 BKN100 OVC120 11/05 A3015 RMK SC1AC6AC1 SLP213
  • 150500Z 24009KT 20SM FEW021 BKN120 BKN170 11/05 A3016 RMK SC1AC5AC1 SLP219

TAF TAF CYQX
Valid from the 15 at 06:00 until the 16 at 06:00 UTC


150538Z 1506/1606 24010KT P6SM BKN120
FM151100 23010G20KT P6SM BKN080
FM151700 23010G20KT P6SM BKN040
FM160200 23012KT P6SM SCT005 BKN050
PROB30 1602/1606 BKN005 RMK NXT FCST BY 151200Z
No reported NOTAMs for that airfield.



MET'MAP, your aeronautical weather chart ! - Copyright ORBIFLY December 2007 - Disclaimer

ORBIFLY MET'MAP TEAM :

Programming & Development : Alexandra Zaïnal
Concept & Development : Baudouin d'Aumeries
Co-Development & Prog : Marc-Olivier Méhu
Technical & hardware support : Manuel Goepfert

Contact : metmap@orbifly.com




SOURCES & CREDITS :

   NOAA